createdAt,value
2019-02-19T00:01:24.789Z,54958.71
2019-02-19T00:03:55.330Z,54989.54
2019-02-19T00:06:25.843Z,55035.77
2019-02-19T00:08:56.296Z,55037.70
2019-02-19T00:11:26.877Z,55074.31
2019-02-19T00:13:57.419Z,55102.25
2019-02-19T00:16:28.056Z,55168.72
2019-02-19T00:18:58.579Z,55171.61
2019-02-19T00:21:29.364Z,55154.27
2019-02-19T00:23:59.815Z,55119.59
2019-02-19T00:26:30.352Z,55098.39
2019-02-19T00:29:00.978Z,55145.60
2019-02-19T00:31:31.899Z,55119.59
2019-02-19T00:34:02.440Z,55093.57
2019-02-19T00:36:33.359Z,55137.89
2019-02-19T00:39:04.861Z,55131.15
2019-02-19T00:41:35.718Z,55172.57
2019-02-19T00:44:06.298Z,55174.50
2019-02-19T00:46:36.863Z,55177.39
2019-02-19T00:49:07.580Z,55180.28
2019-02-19T00:51:38.153Z,55202.44
2019-02-19T00:54:08.728Z,55182.21
2019-02-19T00:56:39.951Z,55149.45
2019-02-19T00:59:10.503Z,55177.39
2019-02-19T01:01:41.048Z,55196.66
2019-02-19T01:04:11.976Z,55208.22
2019-02-19T01:06:42.541Z,55192.80
2019-02-19T01:09:13.197Z,55139.82
2019-02-19T01:11:44.138Z,55155.23
2019-02-19T01:14:14.671Z,55268.91
2019-02-19T01:16:45.272Z,55274.70
2019-02-19T01:19:16.030Z,55278.55
2019-02-19T01:21:46.917Z,55089.72
2019-02-19T01:24:17.535Z,54872.97
2019-02-19T01:26:48.088Z,54716.92
2019-02-19T01:29:18.696Z,54649.49
2019-02-19T01:31:49.238Z,54402.91
2019-02-19T01:34:19.958Z,54172.72
2019-02-19T01:36:50.824Z,53823.13
2019-02-19T01:39:21.467Z,53614.16
2019-02-19T01:41:52.331Z,53371.51
2019-02-19T01:44:22.889Z,53291.59
2019-02-19T01:46:53.381Z,53096.14
2019-02-19T01:49:23.951Z,52938.24
2019-02-19T01:51:54.494Z,52739.92
2019-02-19T01:54:25.097Z,52822.71
2019-02-19T01:56:55.660Z,52850.63
2019-02-19T01:59:26.647Z,52973.86
2019-02-19T02:01:57.100Z,53022.96
2019-02-19T02:04:27.747Z,53081.70
2019-02-19T02:06:58.275Z,53212.64
2019-02-19T02:09:28.820Z,53220.34
2019-02-19T02:11:59.366Z,53217.45
2019-02-19T02:14:29.881Z,53265.59
2019-02-19T02:17:00.354Z,53101.91
2019-02-19T02:19:30.915Z,52979.64
2019-02-19T02:22:01.541Z,52874.70
2019-02-19T02:24:32.333Z,52781.31
2019-02-19T02:27:02.810Z,52671.57
2019-02-19T02:29:33.338Z,52583.96
2019-02-19T02:32:04.416Z,52601.29
2019-02-19T02:34:34.875Z,52562.79
2019-02-19T02:37:05.425Z,52525.24
2019-02-19T02:39:36.277Z,52576.26
2019-02-19T02:42:06.817Z,52533.91
2019-02-19T02:44:37.358Z,52535.83
2019-02-19T02:47:07.946Z,52569.52
2019-02-19T02:49:38.478Z,52657.12
2019-02-19T02:52:09.224Z,52584.93
2019-02-19T02:54:39.744Z,52680.23
2019-02-19T02:57:10.371Z,52656.16
2019-02-19T02:59:40.902Z,52699.48
2019-02-19T03:02:11.444Z,52704.30
2019-02-19T03:04:42.689Z,52715.85
2019-02-19T03:07:27.313Z,52822.71
2019-02-19T03:09:57.750Z,52789.98
2019-02-19T03:12:28.559Z,52876.62
2019-02-19T03:14:59.131Z,52834.26
2019-02-19T03:17:29.674Z,52876.62
2019-02-19T03:20:00.545Z,52878.55
2019-02-19T03:22:31.083Z,52937.28
2019-02-19T03:25:01.736Z,53021.04
2019-02-19T03:27:32.311Z,53086.51
2019-02-19T03:30:02.861Z,53070.14
2019-02-19T03:32:33.290Z,52973.86
2019-02-19T03:35:03.842Z,52919.95
2019-02-19T03:37:34.781Z,52830.41
2019-02-19T03:40:07.521Z,52771.69
2019-02-19T03:42:38.115Z,52745.69
2019-02-19T03:45:10.671Z,52759.17
2019-02-19T03:47:41.142Z,52741.84
2019-02-19T03:50:11.699Z,52719.70
2019-02-19T03:52:42.196Z,52689.86
2019-02-19T03:55:12.648Z,52694.67
2019-02-19T03:57:43.543Z,52684.08
2019-02-19T04:00:14.755Z,52723.55
2019-02-19T04:02:45.424Z,52720.66
2019-02-19T04:05:16.194Z,52740.88
2019-02-19T04:07:46.716Z,52681.19
2019-02-19T04:10:17.672Z,52745.69
2019-02-19T04:12:48.193Z,52733.18
2019-02-19T04:15:18.780Z,52696.60
2019-02-19T04:17:49.241Z,52700.45
2019-02-19T04:20:19.834Z,52703.34
2019-02-19T04:22:50.580Z,52691.78
2019-02-19T04:25:21.116Z,52734.14
2019-02-19T04:27:51.809Z,52745.69
2019-02-19T04:30:22.276Z,52763.98
2019-02-19T04:32:52.825Z,52798.64
2019-02-19T04:35:23.337Z,52819.82
2019-02-19T04:37:54.425Z,52785.16
2019-02-19T04:40:25.721Z,52734.14
2019-02-19T04:42:56.342Z,52727.40
2019-02-19T04:45:27.228Z,52770.72
2019-02-19T04:47:57.732Z,52715.85
2019-02-19T04:50:28.254Z,52740.88
2019-02-19T04:52:58.862Z,52737.03
2019-02-19T04:55:29.614Z,52767.84
2019-02-19T04:58:00.233Z,52722.59
2019-02-19T05:00:30.689Z,52755.32
2019-02-19T05:03:01.294Z,52757.25
2019-02-19T05:05:32.163Z,52743.77
2019-02-19T05:08:02.684Z,52758.21
2019-02-19T05:10:33.218Z,52784.20
2019-02-19T05:13:03.816Z,52779.39
2019-02-19T05:15:34.336Z,52765.91
2019-02-19T05:18:05.335Z,52737.99
2019-02-19T05:20:35.861Z,52774.57
2019-02-19T05:23:07.518Z,52788.05
2019-02-19T05:25:38.213Z,52791.90
2019-02-19T05:28:09.105Z,52777.46
2019-02-19T05:30:39.577Z,52797.68
2019-02-19T05:33:10.121Z,52826.56
2019-02-19T05:35:40.702Z,52788.05
2019-02-19T05:38:11.175Z,52811.16
2019-02-19T05:40:41.691Z,52793.83
2019-02-19T05:43:12.228Z,52850.63
2019-02-19T05:45:42.685Z,52817.89
2019-02-19T05:48:13.939Z,52809.23
2019-02-19T05:50:44.482Z,52842.93
2019-02-19T05:53:15.143Z,52841.00
2019-02-19T05:55:45.676Z,52811.16
2019-02-19T05:58:16.297Z,52824.64
2019-02-19T06:00:47.200Z,52877.59
2019-02-19T06:03:17.691Z,52860.26
2019-02-19T06:05:48.157Z,52880.48
2019-02-19T06:08:18.718Z,52889.14
2019-02-19T06:10:49.249Z,52924.76
2019-02-19T06:13:20.107Z,52913.21
2019-02-19T06:15:50.654Z,52899.73
2019-02-19T06:18:21.239Z,52941.13
2019-02-19T06:20:51.693Z,52922.84
2019-02-19T06:23:22.192Z,52930.54
2019-02-19T06:25:52.739Z,52952.68
2019-02-19T06:28:23.193Z,52918.98
2019-02-19T06:30:53.808Z,52902.62
2019-02-19T06:33:24.381Z,52942.09
2019-02-19T06:35:54.951Z,52909.36
2019-02-19T06:38:25.480Z,52951.72
2019-02-19T06:40:56.478Z,52919.95
2019-02-19T06:43:27.239Z,52950.75
2019-02-19T06:45:58.195Z,52890.10
2019-02-19T06:48:28.727Z,52920.91
2019-02-19T06:51:00.029Z,52869.88
2019-02-19T06:53:30.950Z,52865.07
2019-02-19T06:56:01.526Z,52853.52
2019-02-19T06:58:32.183Z,52845.82
2019-02-19T07:01:02.797Z,52841.00
2019-02-19T07:03:58.399Z,52822.71
2019-02-19T07:06:30.662Z,52817.89
2019-02-19T07:09:01.197Z,52840.04
2019-02-19T07:11:31.732Z,52827.52
2019-02-19T07:14:02.638Z,52785.16
2019-02-19T07:16:33.109Z,52792.87
2019-02-19T07:19:03.641Z,52746.66
2019-02-19T07:21:34.192Z,52772.65
2019-02-19T07:24:04.862Z,52770.72
2019-02-19T07:26:35.436Z,52777.46
2019-02-19T07:29:05.949Z,52744.73
2019-02-19T07:31:36.578Z,52745.69
2019-02-19T07:34:07.106Z,52711.04
2019-02-19T07:36:37.777Z,52708.15
2019-02-19T07:39:08.335Z,52742.80
2019-02-19T07:41:38.905Z,52712.00
2019-02-19T07:44:09.427Z,52682.16
2019-02-19T07:46:40.070Z,52688.89
2019-02-19T07:49:10.846Z,52649.43
2019-02-19T07:51:42.691Z,52707.19
2019-02-19T07:54:13.378Z,52699.48
2019-02-19T07:56:43.894Z,52676.38
2019-02-19T07:59:23.107Z,52705.26
2019-02-19T08:01:52.818Z,52649.43
2019-02-19T08:04:23.681Z,52674.45
2019-02-19T08:06:54.199Z,52691.78
2019-02-19T08:09:24.757Z,52663.86
2019-02-19T08:11:55.237Z,52667.71
2019-02-19T08:14:25.798Z,52607.07
2019-02-19T08:16:56.675Z,52617.66
2019-02-19T08:19:27.255Z,52580.11
2019-02-19T08:21:57.732Z,52591.66
2019-02-19T08:24:28.245Z,52619.58
2019-02-19T08:26:58.854Z,52631.13
2019-02-19T08:29:29.959Z,52629.21
2019-02-19T08:32:00.527Z,52633.06
2019-02-19T08:34:31.085Z,52634.02
2019-02-19T08:37:01.693Z,52620.55
2019-02-19T08:39:32.459Z,52623.43
2019-02-19T08:42:03.052Z,52610.92
2019-02-19T08:44:33.956Z,52613.80
2019-02-19T08:47:04.529Z,52614.77
2019-02-19T08:49:35.070Z,52608.99
2019-02-19T08:52:05.687Z,52632.10
2019-02-19T08:54:36.143Z,52618.62
2019-02-19T08:57:06.683Z,52668.68
2019-02-19T08:59:37.231Z,52644.61
2019-02-19T09:02:07.906Z,52601.29
2019-02-19T09:04:38.743Z,52582.04
2019-02-19T09:07:09.407Z,52575.30
2019-02-19T09:09:39.859Z,52550.27
2019-02-19T09:12:11.627Z,52583.96
2019-02-19T09:14:42.146Z,52586.85
2019-02-19T09:17:12.712Z,52576.26
2019-02-19T09:19:43.503Z,52636.91
2019-02-19T09:22:14.095Z,52613.80
2019-02-19T09:24:44.575Z,52694.67
2019-02-19T09:27:15.112Z,52705.26
2019-02-19T09:29:47.527Z,52709.11
2019-02-19T09:32:18.146Z,52721.62
2019-02-19T09:34:48.731Z,52708.15
2019-02-19T09:37:19.692Z,52731.25
2019-02-19T09:39:50.166Z,52686.97
2019-02-19T09:42:20.750Z,52675.42
2019-02-19T09:44:51.276Z,52698.52
2019-02-19T09:47:21.927Z,52728.37
2019-02-19T09:49:52.771Z,52708.15
2019-02-19T09:52:23.325Z,52753.39
2019-02-19T09:54:53.803Z,52744.73
2019-02-19T09:57:24.447Z,52706.22
2019-02-19T09:59:54.980Z,52759.17
2019-02-19T10:02:26.056Z,52736.07
2019-02-19T10:04:56.960Z,52700.45
2019-02-19T10:07:28.076Z,52761.10
2019-02-19T10:09:58.920Z,52799.61
2019-02-19T10:12:29.562Z,52795.75
2019-02-19T10:15:00.373Z,52773.61
2019-02-19T10:17:30.920Z,52765.91
2019-02-19T10:20:01.381Z,52800.57
2019-02-19T10:22:31.849Z,52805.38
2019-02-19T10:25:02.773Z,52763.02
2019-02-19T10:27:33.314Z,52704.30
2019-02-19T10:30:03.865Z,52682.16
2019-02-19T10:32:34.424Z,52761.10
2019-02-19T10:35:05.312Z,52673.49
2019-02-19T10:37:35.819Z,52664.83
2019-02-19T10:40:06.980Z,52680.23
2019-02-19T10:42:37.890Z,52632.10
2019-02-19T10:45:11.572Z,52599.37
2019-02-19T10:47:42.176Z,52589.74
2019-02-19T10:50:12.727Z,52578.19
2019-02-19T10:52:43.325Z,52523.32
2019-02-19T10:55:13.887Z,52503.10
2019-02-19T10:57:44.583Z,52498.29
2019-02-19T11:00:17.869Z,52542.57
2019-02-19T11:02:48.960Z,52647.50
2019-02-19T11:05:20.390Z,52703.34
2019-02-19T11:07:51.006Z,52744.73
2019-02-19T11:10:21.551Z,52822.71
2019-02-19T11:12:52.495Z,52910.32
2019-02-19T11:15:23.025Z,53022.00
2019-02-19T11:17:53.861Z,53017.19
2019-02-19T11:20:24.518Z,53054.73
2019-02-19T11:22:55.095Z,53118.28
2019-02-19T11:25:25.953Z,53151.98
2019-02-19T11:27:56.844Z,53139.46
2019-02-19T11:30:27.655Z,53217.45
2019-02-19T11:32:58.209Z,53242.48
2019-02-19T11:35:28.697Z,53235.74
2019-02-19T11:37:59.231Z,53252.11
2019-02-19T11:40:29.778Z,53240.56
2019-02-19T11:43:00.741Z,53205.90
2019-02-19T11:45:31.273Z,53296.40
2019-02-19T11:48:01.774Z,53326.25
2019-02-19T11:50:32.223Z,53342.62
2019-02-19T11:53:02.788Z,53372.47
2019-02-19T11:55:33.292Z,53407.13
2019-02-19T11:58:04.243Z,53432.17
2019-02-19T12:00:37.488Z,53473.57
2019-02-19T12:03:08.114Z,53462.02
2019-02-19T12:05:38.624Z,53526.54
2019-02-19T12:08:09.234Z,53502.46
2019-02-19T12:10:39.760Z,53582.39
2019-02-19T12:13:10.667Z,53596.83
2019-02-19T12:15:41.195Z,53606.46
2019-02-19T12:18:11.695Z,53662.31
2019-02-19T12:20:42.203Z,53696.01
2019-02-19T12:23:12.865Z,53691.20
2019-02-19T12:25:43.321Z,53709.50
2019-02-19T12:28:14.002Z,53693.13
2019-02-19T12:30:44.607Z,53724.90
2019-02-19T12:33:15.151Z,53710.46
2019-02-19T12:35:45.759Z,53766.31
2019-02-19T12:38:16.293Z,53772.09
2019-02-19T12:40:46.938Z,53842.39
2019-02-19T12:43:17.401Z,53873.21
2019-02-19T12:45:47.976Z,53904.98
2019-02-19T12:48:18.517Z,53931.95
2019-02-19T12:50:49.145Z,53964.70
2019-02-19T12:53:19.686Z,53976.25
2019-02-19T12:55:50.342Z,54001.29
2019-02-19T12:58:20.834Z,54009.96
2019-02-19T13:00:51.392Z,54024.41
2019-02-19T13:03:21.877Z,54050.41
2019-02-19T13:05:52.542Z,54083.15
2019-02-19T13:08:23.074Z,54122.64
2019-02-19T13:10:53.611Z,54155.38
2019-02-19T13:13:24.148Z,54186.20
2019-02-19T13:15:54.988Z,54242.06
2019-02-19T13:18:26.150Z,54300.82
2019-02-19T13:20:56.682Z,54366.31
2019-02-19T13:23:27.243Z,54383.64
2019-02-19T13:25:58.149Z,54336.45
2019-02-19T13:28:28.664Z,54294.07
2019-02-19T13:30:59.237Z,54356.68
2019-02-19T13:33:29.710Z,54455.89
2019-02-19T13:36:00.226Z,54513.68
2019-02-19T13:38:30.824Z,54504.04
2019-02-19T13:41:01.436Z,54456.85
2019-02-19T13:43:31.912Z,54472.26
2019-02-19T13:46:02.900Z,54435.66
2019-02-19T13:48:33.544Z,54365.35
2019-02-19T13:51:05.175Z,54338.38
2019-02-19T13:53:43.205Z,54292.15
2019-02-19T13:56:13.735Z,54123.60
2019-02-19T13:58:44.346Z,53995.51
2019-02-19T14:01:15.162Z,53722.02
2019-02-19T14:03:46.121Z,53412.91
2019-02-19T14:06:16.659Z,53216.49
2019-02-19T14:08:47.308Z,53217.45
2019-02-19T14:11:17.873Z,53249.23
2019-02-19T14:13:57.082Z,52682.16
2019-02-19T14:16:36.087Z,52331.76
2019-02-19T14:19:22.979Z,52000.64
2019-02-19T14:22:06.024Z,51594.50
2019-02-19T14:24:54.653Z,51812.00
2019-02-19T14:27:59.719Z,52198.92
2019-02-19T14:30:47.592Z,51917.87
2019-02-19T14:33:48.637Z,51251.91
2019-02-19T14:36:22.906Z,51098.91
2019-02-19T14:39:24.782Z,50686.14
2019-02-19T14:42:20.378Z,50975.75
2019-02-19T14:45:09.804Z,51287.51
2019-02-19T14:47:58.079Z,51230.74
2019-02-19T14:50:59.649Z,51214.38
2019-02-19T14:53:48.298Z,51163.38
2019-02-19T14:56:36.405Z,50846.81
2019-02-19T14:59:35.248Z,50788.12
2019-02-19T15:02:24.796Z,50951.69
2019-02-19T15:05:24.408Z,50959.39
2019-02-19T15:08:16.975Z,51012.31
2019-02-19T15:11:09.883Z,51145.10
2019-02-19T15:13:51.293Z,51331.78
2019-02-19T15:16:59.331Z,51464.58
2019-02-19T15:19:54.423Z,51486.71
2019-02-19T15:22:39.186Z,51569.48
2019-02-19T15:25:28.648Z,51553.12
2019-02-19T15:28:33.505Z,51590.65
2019-02-19T15:31:23.145Z,51553.12
2019-02-19T15:34:04.538Z,51585.84
2019-02-19T15:36:54.063Z,51198.02
2019-02-19T15:39:49.650Z,51389.52
2019-02-19T15:42:39.105Z,51467.46
2019-02-19T15:45:18.534Z,51542.53
2019-02-19T15:48:08.079Z,51579.10
2019-02-19T15:50:56.499Z,51616.63
2019-02-19T15:53:46.328Z,51654.16
2019-02-19T15:56:32.235Z,51693.62
2019-02-19T15:59:12.068Z,51704.21
2019-02-19T16:02:01.590Z,51711.91
2019-02-19T16:05:09.163Z,51709.02
2019-02-19T16:07:58.692Z,51718.64
2019-02-19T16:10:50.768Z,51733.08
2019-02-19T16:13:55.612Z,51733.08
2019-02-19T16:16:42.910Z,51768.69
2019-02-19T16:19:38.850Z,51772.54
2019-02-19T16:22:28.853Z,51777.36
2019-02-19T16:25:16.934Z,51787.94
2019-02-19T16:28:18.534Z,51790.83
2019-02-19T16:30:58.687Z,51786.98
2019-02-19T16:33:47.337Z,51812.00
2019-02-19T16:36:40.265Z,51826.44
2019-02-19T16:39:39.194Z,51844.72
2019-02-19T16:42:26.074Z,51826.44
2019-02-19T16:45:07.692Z,51873.60
2019-02-19T16:48:12.356Z,51852.42
2019-02-19T16:51:13.984Z,51861.09
2019-02-19T16:54:09.535Z,51863.01
2019-02-19T16:57:14.155Z,51903.43
2019-02-19T16:59:56.219Z,51894.77
2019-02-19T17:02:40.867Z,51917.87
2019-02-19T17:05:30.410Z,51902.47
2019-02-19T17:08:13.154Z,51976.58
2019-02-19T17:11:17.150Z,52008.34
2019-02-19T17:14:06.779Z,52043.96
2019-02-19T17:17:02.582Z,52028.55
2019-02-19T17:19:50.774Z,52027.59
2019-02-19T17:22:58.438Z,52063.21
2019-02-19T17:25:46.632Z,52086.31
2019-02-19T17:28:54.281Z,52088.23
2019-02-19T17:31:50.154Z,52023.74
2019-02-19T17:34:54.930Z,52106.52
2019-02-19T17:37:50.791Z,52074.76
2019-02-19T17:40:28.334Z,52072.83
2019-02-19T17:43:04.165Z,52073.79
2019-02-19T17:45:55.594Z,52088.23
2019-02-19T17:48:54.712Z,52087.27
2019-02-19T17:51:38.328Z,52080.53
2019-02-19T17:54:36.934Z,52129.62
2019-02-19T17:57:17.700Z,52151.76
2019-02-19T18:00:07.188Z,52198.92
2019-02-19T18:03:00.069Z,52204.70
2019-02-19T18:05:49.513Z,52277.85
2019-02-19T18:08:37.514Z,52289.40
2019-02-19T18:11:27.364Z,52327.91
2019-02-19T18:14:29.286Z,52401.06
2019-02-19T18:17:17.456Z,52384.70
2019-02-19T18:19:48.060Z,52393.36
2019-02-19T18:22:18.965Z,52402.99
2019-02-19T18:24:49.454Z,52379.89
2019-02-19T18:27:19.925Z,52396.25
2019-02-19T18:29:50.460Z,52405.87
2019-02-19T18:32:21.012Z,52468.45
2019-02-19T18:34:51.639Z,52432.83
2019-02-19T18:37:22.181Z,52447.27
2019-02-19T18:39:52.730Z,52454.97
2019-02-19T18:42:23.814Z,52454.97
2019-02-19T18:44:54.643Z,52428.02
2019-02-19T18:47:25.124Z,52477.11
2019-02-19T18:49:55.677Z,52468.45
2019-02-19T18:52:26.194Z,52476.15
2019-02-19T18:54:56.730Z,52437.64
2019-02-19T18:57:27.311Z,52472.30
2019-02-19T18:59:57.950Z,52497.32
2019-02-19T19:02:28.465Z,52491.55
2019-02-19T19:04:59.627Z,52529.09
2019-02-19T19:07:30.132Z,52567.60
2019-02-19T19:10:00.710Z,52585.89
2019-02-19T19:12:31.208Z,52614.77
2019-02-19T19:15:01.857Z,52654.24
2019-02-19T19:17:32.363Z,52720.66
2019-02-19T19:20:03.010Z,52880.48
2019-02-19T19:22:33.879Z,54549.32
2019-02-19T19:25:04.597Z,54639.86
2019-02-19T19:27:35.208Z,54896.09
2019-02-19T19:30:06.841Z,54966.41
2019-02-19T19:32:37.590Z,55063.71
2019-02-19T19:35:09.426Z,55121.51
2019-02-19T19:37:40.247Z,55166.79
2019-02-19T19:40:10.954Z,55184.14
2019-02-19T19:42:41.853Z,55184.14
2019-02-19T19:45:12.614Z,55200.51
2019-02-19T19:47:43.278Z,55164.87
2019-02-19T19:50:13.846Z,55150.41
2019-02-19T19:52:44.481Z,55184.14
2019-02-19T19:55:14.966Z,55180.28
2019-02-19T19:57:45.484Z,55217.85
2019-02-19T20:00:16.038Z,55219.78
2019-02-19T20:02:46.520Z,55201.48
2019-02-19T20:05:17.071Z,55208.22
2019-02-19T20:07:47.578Z,55217.85
2019-02-19T20:10:18.029Z,55228.45
2019-02-19T20:12:48.842Z,55276.62
2019-02-19T20:15:19.470Z,55257.36
2019-02-19T20:17:49.972Z,55261.21
2019-02-19T20:20:20.528Z,55256.39
2019-02-19T20:22:51.056Z,55230.38
2019-02-19T20:25:21.610Z,55217.85
2019-02-19T20:27:52.063Z,55199.55
2019-02-19T20:30:22.539Z,55252.54
2019-02-19T20:32:53.392Z,55218.82
2019-02-19T20:35:23.925Z,55241.94
2019-02-19T20:37:54.442Z,55266.02
2019-02-19T20:40:24.990Z,55287.22
2019-02-19T20:42:55.575Z,55308.41
2019-02-19T20:45:26.105Z,55361.41
2019-02-19T20:47:56.724Z,55398.02
2019-02-19T20:50:27.525Z,55381.64
2019-02-19T20:52:58.370Z,55432.70
2019-02-19T20:55:36.741Z,55421.14
2019-02-19T20:58:01.160Z,55471.24
2019-02-19T21:00:31.701Z,55516.52
2019-02-19T21:03:02.247Z,55500.14
2019-02-19T21:05:33.018Z,55567.59
2019-02-19T21:08:03.635Z,55588.79
2019-02-19T21:10:34.174Z,55599.38
2019-02-19T21:13:04.803Z,55632.14
2019-02-19T21:15:35.681Z,55642.74
2019-02-19T21:18:06.235Z,55670.68
2019-02-19T21:20:36.751Z,55660.09
2019-02-19T21:23:07.405Z,55710.19
2019-02-19T21:25:37.928Z,55723.68
2019-02-19T21:28:08.457Z,55703.45
2019-02-19T21:30:38.985Z,55671.65
2019-02-19T21:33:09.558Z,55689.96
2019-02-19T21:35:40.095Z,55718.86
2019-02-19T21:38:10.724Z,55667.79
2019-02-19T21:40:41.269Z,55683.21
2019-02-19T21:43:11.813Z,55646.60
2019-02-19T21:45:42.786Z,55662.01
2019-02-19T21:48:13.414Z,55678.39
2019-02-19T21:50:43.948Z,55658.16
2019-02-19T21:53:14.568Z,55646.60
2019-02-19T21:55:45.049Z,55595.53
2019-02-19T21:58:15.622Z,55606.13
2019-02-19T22:00:46.453Z,55590.71
2019-02-19T22:03:17.025Z,55515.56
2019-02-19T22:05:47.476Z,55468.35
2019-02-19T22:08:17.968Z,55412.47
2019-02-19T22:10:48.354Z,55378.75
2019-02-19T22:13:18.915Z,55349.84
2019-02-19T22:15:49.746Z,55331.54
2019-02-19T22:18:20.380Z,55277.59
2019-02-19T22:21:02.297Z,55368.15
2019-02-19T22:23:32.827Z,55340.21
2019-02-19T22:26:03.357Z,55263.13
2019-02-19T22:28:34.214Z,55203.40
2019-02-19T22:31:04.764Z,55216.89
2019-02-19T22:33:35.348Z,55159.09
2019-02-19T22:36:05.920Z,55120.55
2019-02-19T22:38:36.454Z,55101.28
2019-02-19T22:41:07.420Z,55033.85
2019-02-19T22:43:38.223Z,54980.86
2019-02-19T22:46:08.760Z,54982.79
2019-02-19T22:48:39.407Z,54992.42
2019-02-19T22:51:09.878Z,54946.18
2019-02-19T22:53:47.810Z,54926.92
2019-02-19T22:56:43.232Z,54864.30
2019-02-19T22:59:13.766Z,54858.52
2019-02-19T23:02:11.196Z,54828.66
2019-02-19T23:04:41.798Z,54822.88
2019-02-19T23:07:12.667Z,54779.53
2019-02-19T23:09:43.231Z,54731.37
2019-02-19T23:12:13.784Z,54724.62
2019-02-19T23:14:44.394Z,54679.35
2019-02-19T23:17:14.873Z,54651.42
2019-02-19T23:19:45.446Z,54627.34
2019-02-19T23:22:21.523Z,54600.37
2019-02-19T23:24:48.152Z,54636.00
2019-02-19T23:27:19.145Z,54617.71
2019-02-19T23:29:49.626Z,54606.15
2019-02-19T23:32:20.459Z,54585.92
2019-02-19T23:35:09.855Z,54607.11
2019-02-19T23:37:40.383Z,54651.42
2019-02-19T23:40:10.933Z,54649.49
2019-02-19T23:42:41.502Z,54588.81
2019-02-19T23:45:12.073Z,54649.49
2019-02-19T23:47:42.591Z,54636.97
2019-02-19T23:50:13.121Z,54641.79
2019-02-19T23:52:43.657Z,54671.64
2019-02-19T23:55:14.621Z,54675.50
2019-02-19T23:57:45.146Z,54697.66
